createdAt,value
2023-05-25T00:00:05.705Z,7.93
2023-05-25T00:08:20.722Z,8.32
2023-05-25T00:10:47.849Z,9.15
2023-05-25T00:13:24.827Z,8.75
2023-05-25T00:15:52.080Z,8.63
2023-05-25T00:18:19.569Z,9.90
2023-05-25T00:20:47.678Z,8.20
2023-05-25T00:23:15.066Z,8.98
2023-05-25T00:25:42.694Z,10.13
2023-05-25T00:28:17.660Z,7.80
2023-05-25T00:30:45.192Z,8.63
2023-05-25T00:33:13.121Z,9.40
2023-05-25T00:35:42.687Z,8.82
2023-05-25T00:38:14.657Z,9.05
2023-05-25T00:40:42.122Z,8.82
2023-05-25T00:45:40.522Z,9.60
2023-05-25T00:48:07.710Z,10.30
2023-05-25T00:50:38.214Z,10.82
2023-05-25T00:53:06.586Z,9.90
2023-05-25T00:55:37.678Z,10.18
2023-05-25T01:00:41.846Z,10.65
2023-05-25T01:03:17.727Z,10.70
2023-05-25T01:05:47.452Z,10.18
2023-05-25T01:08:16.064Z,11.77
2023-05-25T01:10:43.523Z,10.00
2023-05-25T01:13:11.139Z,11.10
2023-05-25T01:15:39.402Z,12.63
2023-05-25T01:18:06.515Z,11.20
2023-05-25T01:20:34.220Z,10.77
2023-05-25T01:23:07.573Z,10.77
2023-05-25T01:25:34.743Z,10.05
2023-05-25T01:28:05.507Z,10.90
2023-05-25T01:30:33.860Z,11.02
2023-05-25T01:33:01.550Z,11.38
2023-05-25T01:35:29.411Z,12.38
2023-05-25T01:37:56.525Z,11.45
2023-05-25T01:40:23.957Z,12.88
2023-05-25T01:42:57.624Z,12.07
2023-05-25T01:45:25.291Z,11.82
2023-05-25T01:50:37.953Z,11.77
2023-05-25T01:53:08.301Z,12.02
2023-05-25T01:55:38.258Z,12.07
2023-05-25T01:58:09.035Z,10.93
2023-05-25T02:03:20.938Z,12.73
2023-05-25T02:05:48.157Z,16.10
2023-05-25T02:08:15.775Z,15.27
2023-05-25T02:10:43.109Z,13.73
2023-05-25T02:13:10.337Z,14.82
2023-05-25T02:18:21.038Z,12.55
2023-05-25T02:20:48.316Z,12.15
2023-05-25T02:23:18.530Z,12.82
2023-05-25T02:25:46.771Z,11.70
2023-05-25T02:28:15.543Z,11.90
2023-05-25T02:33:24.533Z,12.88
2023-05-25T02:35:53.007Z,12.38
2023-05-25T02:38:20.210Z,13.68
2023-05-25T02:40:47.288Z,13.32
2023-05-25T02:43:14.410Z,12.88
2023-05-25T02:45:44.707Z,14.32
2023-05-25T02:48:12.160Z,13.48
2023-05-25T02:50:41.412Z,13.52
2023-05-25T02:53:08.598Z,13.90
2023-05-25T03:01:13.048Z,12.52
2023-05-25T03:09:13.294Z,12.85
2023-05-25T03:11:40.645Z,14.48
2023-05-25T03:14:07.848Z,13.38
2023-05-25T03:16:36.658Z,14.40
2023-05-25T03:19:05.474Z,13.40
2023-05-25T03:21:39.468Z,12.82
2023-05-25T03:24:06.976Z,13.70
2023-05-25T03:26:34.365Z,13.77
2023-05-25T03:29:01.681Z,13.38
2023-05-25T03:31:33.709Z,14.30
2023-05-25T03:34:01.131Z,14.40
2023-05-25T03:42:03.476Z,13.07
2023-05-25T03:44:30.793Z,14.70
2023-05-25T03:46:57.957Z,13.05
2023-05-25T03:49:25.055Z,12.27
2023-05-25T03:51:52.124Z,12.40
2023-05-25T03:54:28.863Z,14.50
2023-05-25T03:56:58.995Z,13.43
2023-05-25T03:59:26.277Z,12.77
2023-05-25T04:01:53.444Z,13.20
2023-05-25T04:04:22.353Z,14.57
2023-05-25T04:06:49.796Z,13.25
2023-05-25T04:11:51.550Z,12.85
2023-05-25T04:14:21.069Z,13.23
2023-05-25T04:16:48.287Z,11.82
2023-05-25T04:19:15.586Z,12.55
2023-05-25T04:35:21.933Z,13.45
2023-05-25T04:37:51.757Z,12.35
2023-05-25T04:40:21.854Z,12.18
2023-05-25T04:42:49.408Z,12.15
2023-05-25T04:45:18.350Z,13.65
2023-05-25T04:47:47.546Z,13.02
2023-05-25T04:50:14.726Z,12.20
2023-05-25T04:52:41.877Z,12.45
2023-05-25T04:55:09.307Z,13.57
2023-05-25T04:57:36.695Z,11.88
2023-05-25T05:02:40.580Z,13.13
2023-05-25T05:05:08.157Z,14.15
2023-05-25T05:07:36.049Z,13.75
2023-05-25T05:10:03.276Z,12.57
2023-05-25T05:12:30.464Z,12.90
2023-05-25T05:17:44.926Z,13.30
2023-05-25T05:20:13.583Z,13.13
2023-05-25T05:22:41.903Z,11.85
2023-05-25T05:25:10.521Z,14.02
2023-05-25T05:27:41.608Z,12.57
2023-05-25T05:30:09.054Z,13.00
2023-05-25T05:32:36.591Z,11.30
2023-05-25T05:35:11.338Z,13.35
2023-05-25T05:37:42.097Z,12.52
2023-05-25T05:40:11.092Z,12.35
2023-05-25T05:42:38.315Z,12.73
2023-05-25T05:45:06.496Z,12.20
2023-05-25T05:47:33.751Z,11.95
2023-05-25T05:50:03.450Z,12.38
2023-05-25T05:52:33.725Z,12.23
2023-05-25T05:55:02.680Z,12.13
2023-05-25T05:57:29.851Z,12.88
2023-05-25T06:02:32.531Z,14.07
2023-05-25T06:05:01.832Z,12.57
2023-05-25T06:07:31.008Z,12.02
2023-05-25T06:09:59.648Z,12.65
2023-05-25T06:12:26.827Z,11.00
2023-05-25T06:25:54.593Z,11.05
2023-05-25T06:28:25.133Z,11.50
2023-05-25T06:36:09.656Z,10.80
2023-05-25T06:38:41.915Z,10.98
2023-05-25T06:41:16.664Z,13.90
2023-05-25T06:43:44.925Z,11.25
2023-05-25T06:46:18.824Z,11.38
2023-05-25T06:48:46.918Z,10.38
2023-05-25T06:51:16.246Z,9.90
2023-05-25T06:53:50.565Z,10.43
2023-05-25T06:56:19.872Z,10.68
2023-05-25T06:58:49.496Z,10.13
2023-05-25T07:01:19.622Z,10.57
2023-05-25T07:03:48.483Z,9.52
2023-05-25T07:06:25.036Z,9.38
2023-05-25T07:11:43.622Z,9.10
2023-05-25T07:14:11.106Z,9.98
2023-05-25T07:16:38.547Z,9.48
2023-05-25T07:19:11.192Z,9.00
2023-05-25T07:21:40.292Z,8.82
2023-05-25T07:24:07.904Z,9.20
2023-05-25T07:26:37.454Z,10.65
2023-05-25T07:29:13.769Z,9.17
2023-05-25T07:31:44.494Z,9.32
2023-05-25T07:34:12.839Z,9.52
2023-05-25T07:36:40.107Z,8.90
2023-05-25T07:41:59.410Z,9.40
2023-05-25T07:44:31.027Z,10.25
2023-05-25T07:46:59.339Z,10.35
2023-05-25T07:49:28.543Z,10.52
2023-05-25T07:51:55.795Z,10.77
2023-05-25T07:54:23.588Z,10.13
2023-05-25T07:56:51.082Z,9.65
2023-05-25T07:59:29.633Z,10.20
2023-05-25T08:01:56.834Z,9.02
2023-05-25T08:04:24.586Z,10.60
2023-05-25T08:06:52.493Z,8.65
2023-05-25T08:09:20.021Z,10.90
2023-05-25T08:11:48.363Z,9.32
2023-05-25T08:14:16.234Z,9.05
2023-05-25T08:16:44.828Z,8.50
2023-05-25T08:19:14.090Z,8.93
2023-05-25T08:21:41.217Z,8.10
2023-05-25T08:24:09.258Z,9.50
2023-05-25T08:26:53.066Z,8.27
2023-05-25T08:31:58.693Z,9.38
2023-05-25T08:34:28.448Z,8.10
2023-05-25T08:36:55.927Z,8.02
2023-05-25T08:39:26.720Z,8.90
2023-05-25T08:42:03.583Z,7.93
2023-05-25T08:49:57.684Z,7.68
2023-05-25T08:52:27.859Z,9.25
2023-05-25T08:54:56.267Z,8.48
2023-05-25T08:57:42.043Z,8.07
2023-05-25T09:00:13.360Z,9.00
2023-05-25T09:02:40.616Z,8.80
2023-05-25T09:07:47.447Z,9.15
2023-05-25T09:10:17.527Z,9.20
2023-05-25T09:12:44.815Z,10.25
2023-05-25T09:15:13.501Z,7.80
2023-05-25T09:17:41.668Z,8.27
2023-05-25T09:22:54.960Z,9.38
2023-05-25T09:25:22.299Z,8.50
2023-05-25T09:27:50.279Z,8.73
2023-05-25T09:30:17.412Z,8.20
2023-05-25T09:32:45.280Z,8.05
2023-05-25T09:35:16.585Z,7.97
2023-05-25T09:37:45.776Z,8.30
2023-05-25T09:40:14.187Z,8.50
2023-05-25T09:42:42.874Z,7.28
2023-05-25T09:45:10.158Z,8.10
2023-05-25T09:47:38.375Z,7.07
2023-05-25T09:58:30.527Z,7.28
2023-05-25T10:01:00.841Z,6.88
2023-05-25T10:03:28.050Z,6.53
2023-05-25T10:05:55.993Z,6.20
2023-05-25T10:08:28.513Z,6.90
2023-05-25T10:13:32.739Z,5.88
2023-05-25T10:16:00.508Z,6.00
2023-05-25T10:18:30.435Z,5.70
2023-05-25T10:21:02.965Z,5.80
2023-05-25T10:23:42.132Z,5.75
2023-05-25T10:26:09.680Z,6.93
2023-05-25T10:28:37.661Z,5.88
2023-05-25T10:31:05.835Z,6.55
2023-05-25T10:33:34.054Z,7.15
2023-05-25T10:38:35.572Z,5.60
2023-05-25T10:41:04.064Z,6.47
2023-05-25T10:43:32.250Z,5.80
2023-05-25T10:45:59.724Z,5.55
2023-05-25T10:48:36.793Z,6.93
2023-05-25T10:51:09.305Z,5.25
2023-05-25T10:53:38.322Z,4.57
2023-05-25T10:56:06.677Z,4.57
2023-05-25T10:58:34.323Z,4.63
2023-05-25T11:01:02.905Z,4.25
2023-05-25T11:03:48.336Z,4.70
2023-05-25T11:06:16.355Z,4.95
2023-05-25T11:08:56.886Z,4.15
2023-05-25T11:11:45.296Z,4.53
2023-05-25T11:14:28.153Z,5.07
2023-05-25T11:17:06.321Z,4.40
2023-05-25T11:20:02.694Z,3.90
2023-05-25T11:22:33.588Z,3.55
2023-05-25T11:25:01.426Z,3.83
2023-05-25T11:27:32.161Z,3.67
2023-05-25T11:30:00.732Z,3.50
2023-05-25T11:32:28.910Z,3.90
2023-05-25T11:34:58.136Z,4.47
2023-05-25T11:37:29.224Z,4.65
2023-05-25T11:39:56.443Z,2.78
2023-05-25T11:42:26.713Z,3.55
2023-05-25T11:44:54.334Z,2.90
2023-05-25T11:47:24.874Z,3.30
2023-05-25T11:49:52.526Z,3.03
2023-05-25T11:52:20.700Z,3.55
2023-05-25T11:54:48.149Z,3.15
2023-05-25T11:57:20.009Z,3.95
2023-05-25T11:59:51.340Z,3.40
2023-05-25T12:02:18.825Z,3.60
2023-05-25T12:05:02.374Z,3.28
2023-05-25T12:07:30.633Z,4.13
2023-05-25T12:10:13.951Z,3.42
2023-05-25T12:12:51.697Z,4.15
2023-05-25T12:15:22.870Z,3.35
2023-05-25T12:17:50.610Z,4.65
2023-05-25T12:20:18.500Z,4.43
2023-05-25T12:22:46.591Z,3.97
2023-05-25T12:25:16.021Z,4.43
2023-05-25T12:27:44.261Z,4.10
2023-05-25T12:30:11.842Z,5.00
2023-05-25T12:32:59.617Z,4.45
2023-05-25T12:35:31.467Z,4.03
2023-05-25T12:40:28.601Z,4.80
2023-05-25T12:42:58.571Z,5.60
2023-05-25T12:45:26.109Z,6.25
2023-05-25T12:47:53.208Z,5.68
2023-05-25T12:50:20.705Z,5.25
2023-05-25T12:52:48.597Z,5.63
2023-05-25T12:55:27.492Z,4.80
2023-05-25T12:57:54.669Z,5.80
2023-05-25T13:00:31.183Z,5.38
2023-05-25T13:03:00.154Z,4.75
2023-05-25T13:05:35.148Z,6.07
2023-05-25T13:08:02.957Z,5.38
2023-05-25T13:10:31.176Z,5.97
2023-05-25T13:12:58.538Z,5.47
2023-05-25T13:15:26.943Z,5.28
2023-05-25T13:17:54.800Z,6.03
2023-05-25T13:20:23.387Z,5.93
2023-05-25T13:22:51.624Z,4.95
2023-05-25T13:25:19.428Z,5.30
2023-05-25T13:27:47.822Z,4.40
2023-05-25T13:30:15.433Z,5.53
2023-05-25T13:32:43.477Z,4.85
2023-05-25T13:35:19.403Z,5.57
2023-05-25T13:37:47.083Z,5.13
2023-05-25T13:40:14.342Z,5.57
2023-05-25T13:42:42.177Z,5.68
2023-05-25T13:45:09.692Z,5.40
2023-05-25T13:47:37.916Z,5.18
2023-05-25T13:50:05.435Z,5.00
2023-05-25T13:52:33.072Z,5.32
2023-05-25T13:55:12.017Z,4.88
2023-05-25T13:57:39.197Z,5.90
2023-05-25T14:00:08.461Z,5.55
2023-05-25T14:02:36.845Z,5.13
2023-05-25T14:05:04.404Z,5.32
2023-05-25T14:07:32.971Z,5.53
2023-05-25T14:10:10.986Z,5.05
2023-05-25T14:12:38.068Z,5.13
2023-05-25T14:15:05.604Z,5.00
2023-05-25T14:17:33.100Z,5.32
2023-05-25T14:20:04.074Z,5.22
2023-05-25T14:22:32.134Z,5.03
2023-05-25T14:24:59.363Z,5.38
2023-05-25T14:27:26.981Z,5.25
2023-05-25T14:29:54.305Z,4.82
2023-05-25T14:32:21.759Z,4.55
2023-05-25T14:34:49.319Z,5.15
2023-05-25T14:37:16.846Z,5.43
2023-05-25T14:39:43.943Z,4.90
2023-05-25T14:42:11.587Z,4.32
2023-05-25T14:44:39.144Z,4.60
2023-05-25T14:47:06.926Z,4.80
2023-05-25T14:49:35.910Z,6.00
2023-05-25T14:52:04.361Z,4.68
2023-05-25T14:54:35.313Z,4.97
2023-05-25T14:57:02.904Z,4.88
2023-05-25T14:59:32.992Z,4.28
2023-05-25T15:02:02.997Z,4.95
2023-05-25T15:04:35.467Z,5.60
2023-05-25T15:10:05.262Z,4.43
2023-05-25T15:12:42.007Z,5.03
2023-05-25T15:15:10.960Z,4.50
2023-05-25T15:17:43.235Z,4.75
2023-05-25T15:20:12.989Z,5.00
2023-05-25T15:22:47.205Z,4.05
2023-05-25T15:25:19.017Z,4.32
2023-05-25T15:27:52.243Z,5.78
2023-05-25T15:30:19.413Z,5.65
2023-05-25T15:32:47.650Z,5.70
2023-05-25T15:35:15.205Z,5.13
2023-05-25T15:42:59.024Z,5.60
2023-05-25T15:45:26.672Z,5.53
2023-05-25T15:47:54.033Z,5.38
2023-05-25T15:50:21.891Z,5.65
2023-05-25T15:52:49.424Z,4.93
2023-05-25T15:55:18.928Z,5.10
2023-05-25T15:57:46.717Z,6.13
2023-05-25T16:00:14.629Z,6.05
2023-05-25T16:02:41.951Z,5.47
2023-05-25T16:05:10.283Z,5.57
2023-05-25T16:07:37.635Z,4.95
2023-05-25T16:10:05.178Z,6.00
2023-05-25T16:12:32.459Z,5.72
2023-05-25T16:14:59.686Z,6.30
2023-05-25T16:17:28.420Z,5.70
2023-05-25T16:19:56.338Z,5.65
2023-05-25T16:22:23.673Z,6.13
2023-05-25T16:24:51.332Z,5.05
2023-05-25T16:27:18.632Z,6.18
2023-05-25T16:29:46.086Z,5.68
2023-05-25T16:32:13.377Z,5.95
2023-05-25T16:34:41.067Z,5.20
2023-05-25T16:37:08.306Z,6.28
2023-05-25T16:39:35.897Z,5.60
2023-05-25T16:42:03.758Z,6.60
2023-05-25T16:44:30.928Z,5.82
2023-05-25T16:46:59.090Z,6.07
2023-05-25T16:49:26.323Z,5.68
2023-05-25T16:51:53.985Z,5.82
2023-05-25T16:54:21.183Z,5.38
2023-05-25T16:56:48.815Z,5.63
2023-05-25T16:59:16.172Z,5.60
2023-05-25T17:01:43.637Z,6.63
2023-05-25T17:04:10.903Z,6.05
2023-05-25T17:06:38.582Z,5.28
2023-05-25T17:09:05.597Z,5.68
2023-05-25T17:11:32.834Z,5.45
2023-05-25T17:14:00.258Z,5.25
2023-05-25T17:16:27.474Z,6.28
2023-05-25T17:18:54.674Z,5.55
2023-05-25T17:21:21.931Z,6.05
2023-05-25T17:23:52.094Z,5.72
2023-05-25T17:26:19.451Z,5.57
2023-05-25T17:28:46.659Z,5.68
2023-05-25T17:31:14.140Z,5.68
2023-05-25T17:33:41.397Z,6.47
2023-05-25T17:36:08.567Z,5.22
2023-05-25T17:38:37.606Z,5.13
2023-05-25T17:41:04.685Z,5.50
2023-05-25T17:43:31.806Z,5.53
2023-05-25T17:45:59.649Z,6.65
2023-05-25T17:48:27.184Z,6.22
2023-05-25T17:50:54.371Z,5.57
2023-05-25T17:53:21.501Z,6.43
2023-05-25T17:55:48.812Z,4.93
2023-05-25T17:58:15.913Z,6.35
2023-05-25T18:00:43.019Z,5.38
2023-05-25T18:03:42.545Z,6.32
2023-05-25T18:06:10.192Z,6.43
2023-05-25T18:08:37.303Z,5.63
2023-05-25T18:11:04.766Z,6.15
2023-05-25T18:13:31.881Z,5.90
2023-05-25T18:15:59.718Z,7.35
2023-05-25T18:18:26.919Z,6.20
2023-05-25T18:20:54.267Z,6.15
2023-05-25T18:23:22.334Z,6.53
2023-05-25T18:25:49.574Z,5.10
2023-05-25T18:28:16.733Z,5.75
2023-05-25T18:30:43.943Z,5.85
2023-05-25T18:33:11.186Z,5.43
2023-05-25T18:35:38.748Z,5.22
2023-05-25T18:38:09.304Z,6.10
2023-05-25T18:43:20.451Z,6.18
2023-05-25T18:45:47.679Z,5.65
2023-05-25T18:48:16.104Z,5.95
2023-05-25T18:50:44.804Z,6.55
2023-05-25T18:53:12.084Z,4.88
2023-05-25T18:55:39.265Z,5.15
2023-05-25T18:58:07.044Z,5.82
2023-05-25T19:00:34.225Z,5.22
2023-05-25T19:03:01.554Z,5.00
2023-05-25T19:05:28.798Z,4.85
2023-05-25T19:07:59.662Z,6.00
2023-05-25T19:10:27.187Z,4.80
2023-05-25T19:12:54.314Z,5.38
2023-05-25T19:15:21.537Z,4.55
2023-05-25T19:17:48.783Z,5.05
2023-05-25T19:20:16.256Z,4.93
2023-05-25T19:22:43.473Z,4.80
2023-05-25T19:25:10.815Z,4.13
2023-05-25T19:27:37.991Z,5.40
2023-05-25T19:30:05.504Z,4.10
2023-05-25T19:32:32.708Z,5.80
2023-05-25T19:34:59.887Z,4.78
2023-05-25T19:37:27.434Z,4.88
2023-05-25T19:39:56.445Z,5.20
2023-05-25T19:42:23.561Z,4.53
2023-05-25T19:44:51.007Z,5.13
2023-05-25T19:47:18.146Z,4.47
2023-05-25T19:49:45.257Z,4.40
2023-05-25T19:52:12.427Z,4.40
2023-05-25T19:54:39.601Z,4.38
2023-05-25T19:57:06.815Z,4.50
2023-05-25T19:59:34.030Z,5.47
2023-05-25T20:02:01.260Z,4.68
2023-05-25T20:04:28.396Z,5.18
2023-05-25T20:06:55.507Z,5.18
2023-05-25T20:09:30.078Z,5.35
2023-05-25T20:12:00.957Z,5.45
2023-05-25T20:14:28.220Z,5.28
2023-05-25T20:16:55.936Z,5.55
2023-05-25T20:19:23.343Z,5.57
2023-05-25T20:21:50.642Z,4.55
2023-05-25T20:24:17.856Z,5.10
2023-05-25T20:29:15.899Z,4.70
2023-05-25T20:31:43.156Z,5.28
2023-05-25T20:34:10.278Z,4.47
2023-05-25T20:36:38.037Z,4.53
2023-05-25T20:39:12.655Z,5.75
2023-05-25T20:41:47.710Z,5.03
2023-05-25T20:44:14.949Z,5.53
2023-05-25T20:46:42.317Z,5.13
2023-05-25T20:49:09.648Z,5.00
2023-05-25T20:51:36.813Z,4.82
2023-05-25T20:54:03.957Z,5.22
2023-05-25T20:56:31.265Z,5.18
2023-05-25T20:58:58.458Z,5.35
2023-05-25T21:01:25.866Z,5.13
2023-05-25T21:03:53.080Z,5.50
2023-05-25T21:06:20.828Z,5.45
2023-05-25T21:08:47.996Z,4.82
2023-05-25T21:11:15.067Z,4.82
2023-05-25T21:13:42.163Z,6.05
2023-05-25T21:16:09.279Z,5.47
2023-05-25T21:18:36.418Z,4.68
2023-05-25T21:21:04.568Z,5.07
2023-05-25T21:23:31.888Z,5.43
2023-05-25T21:25:58.919Z,5.80
2023-05-25T21:28:26.369Z,5.32
2023-05-25T21:30:53.429Z,5.35
2023-05-25T21:33:20.489Z,5.63
2023-05-25T21:35:47.619Z,5.53
2023-05-25T21:38:14.880Z,5.15
2023-05-25T21:40:41.923Z,6.45
2023-05-25T21:43:09.297Z,5.72
2023-05-25T21:45:36.329Z,5.88
2023-05-25T21:48:04.680Z,5.40
2023-05-25T21:50:35.620Z,5.90
2023-05-25T21:53:02.783Z,5.50
2023-05-25T21:55:29.828Z,5.95
2023-05-25T21:57:56.989Z,6.22
2023-05-25T22:00:24.421Z,6.00
2023-05-25T22:02:51.805Z,5.28
2023-05-25T22:13:34.936Z,5.65
2023-05-25T22:16:02.004Z,5.75
2023-05-25T22:18:29.113Z,6.70
2023-05-25T22:20:56.275Z,5.80
2023-05-25T22:29:01.641Z,6.38
2023-05-25T22:31:28.924Z,6.72
2023-05-25T22:33:56.147Z,6.80
2023-05-25T22:36:23.300Z,6.25
2023-05-25T22:38:50.504Z,6.28
2023-05-25T22:41:23.574Z,6.78
2023-05-25T22:43:50.638Z,6.97
2023-05-25T22:46:18.834Z,7.22
2023-05-25T22:48:47.128Z,7.22
2023-05-25T22:51:14.182Z,8.07
2023-05-25T22:53:42.402Z,6.13
2023-05-25T23:04:17.015Z,6.55
2023-05-25T23:06:44.238Z,7.65
2023-05-25T23:09:12.413Z,7.05
2023-05-25T23:11:39.434Z,7.68
2023-05-25T23:22:39.975Z,6.70
2023-05-25T23:25:07.349Z,6.85
2023-05-25T23:27:34.479Z,7.75
2023-05-25T23:30:03.036Z,7.25
2023-05-25T23:32:30.321Z,7.30
2023-05-25T23:37:37.880Z,8.43
2023-05-25T23:40:05.343Z,9.60
2023-05-25T23:42:37.744Z,7.57
2023-05-25T23:45:05.133Z,7.75
2023-05-25T23:47:32.220Z,8.20
2023-05-25T23:50:09.612Z,7.80
2023-05-25T23:52:36.743Z,8.73
2023-05-25T23:55:06.267Z,8.68
2023-05-25T23:57:33.305Z,9.32
